createdAt,value
2023-04-18T00:00:17.611Z,12.53
2023-04-18T00:02:51.619Z,12.30
2023-04-18T00:05:23.674Z,12.51
2023-04-18T00:07:52.041Z,11.96
2023-04-18T00:10:20.706Z,12.00
2023-04-18T00:12:49.002Z,12.01
2023-04-18T00:15:16.231Z,11.98
2023-04-18T00:17:43.543Z,11.85
2023-04-18T00:20:12.588Z,11.77
2023-04-18T00:22:46.716Z,11.70
2023-04-18T00:25:14.967Z,11.45
2023-04-18T00:27:42.554Z,12.15
2023-04-18T00:30:10.761Z,12.24
2023-04-18T00:32:39.077Z,11.83
2023-04-18T00:35:07.617Z,11.45
2023-04-18T00:37:35.853Z,12.15
2023-04-18T00:40:05.526Z,12.14
2023-04-18T00:42:34.147Z,12.37
2023-04-18T00:45:01.676Z,12.34
2023-04-18T00:47:31.340Z,12.48
2023-04-18T00:49:59.502Z,12.28
2023-04-18T00:52:27.663Z,12.30
2023-04-18T00:54:55.740Z,12.04
2023-04-18T00:57:23.393Z,11.51
2023-04-18T00:59:52.028Z,11.66
2023-04-18T01:02:22.827Z,11.98
2023-04-18T01:04:50.768Z,11.89
2023-04-18T01:07:18.460Z,11.92
2023-04-18T01:09:46.320Z,11.60
2023-04-18T01:12:13.570Z,11.81
2023-04-18T01:14:44.084Z,11.49
2023-04-18T01:17:13.259Z,11.57
2023-04-18T01:19:41.034Z,11.28
2023-04-18T01:22:10.459Z,11.54
2023-04-18T01:24:38.100Z,11.80
2023-04-18T01:27:05.855Z,11.83
2023-04-18T01:29:34.197Z,12.05
2023-04-18T01:32:02.624Z,11.37
2023-04-18T01:34:30.205Z,11.71
2023-04-18T01:36:57.590Z,11.49
2023-04-18T01:39:24.822Z,11.54
2023-04-18T01:41:52.878Z,11.21
2023-04-18T01:44:20.241Z,11.32
2023-04-18T01:46:47.858Z,11.02
2023-04-18T01:49:16.472Z,11.21
2023-04-18T01:51:43.943Z,11.35
2023-04-18T01:54:11.156Z,11.38
2023-04-18T01:56:38.546Z,11.51
2023-04-18T01:59:06.323Z,11.28
2023-04-18T02:01:33.971Z,11.61
2023-04-18T02:04:01.425Z,11.71
2023-04-18T02:06:28.714Z,11.41
2023-04-18T02:08:56.074Z,11.42
2023-04-18T02:11:25.608Z,11.54
2023-04-18T02:13:52.904Z,11.56
2023-04-18T02:16:24.103Z,11.75
2023-04-18T02:18:52.444Z,11.84
2023-04-18T02:21:22.076Z,11.95
2023-04-18T02:23:57.026Z,11.99
2023-04-18T02:26:24.620Z,11.74
2023-04-18T02:28:51.909Z,11.05
2023-04-18T02:31:19.214Z,11.18
2023-04-18T02:33:48.046Z,11.39
2023-04-18T02:36:15.594Z,10.74
2023-04-18T02:38:43.260Z,11.02
2023-04-18T02:41:17.521Z,11.11
2023-04-18T02:43:45.521Z,10.91
2023-04-18T02:46:15.120Z,10.74
2023-04-18T02:48:45.369Z,10.90
2023-04-18T02:51:13.720Z,10.80
2023-04-18T02:53:40.996Z,10.93
2023-04-18T02:56:08.414Z,11.10
2023-04-18T02:58:54.373Z,11.06
2023-04-18T03:01:40.433Z,10.81
2023-04-18T03:04:15.180Z,11.48
2023-04-18T03:07:11.025Z,11.48
2023-04-18T03:09:39.888Z,11.09
2023-04-18T03:12:16.908Z,11.39
2023-04-18T03:14:44.503Z,11.62
2023-04-18T03:17:13.805Z,11.70
2023-04-18T03:19:45.432Z,11.77
2023-04-18T03:22:15.896Z,11.19
2023-04-18T03:24:51.271Z,11.58
2023-04-18T03:27:19.862Z,11.11
2023-04-18T03:29:48.323Z,11.58
2023-04-18T03:32:17.346Z,11.80
2023-04-18T03:34:45.088Z,11.97
2023-04-18T03:37:12.914Z,12.10
2023-04-18T03:39:45.997Z,12.23
2023-04-18T03:42:13.955Z,12.35
2023-04-18T03:44:42.573Z,12.05
2023-04-18T03:47:10.305Z,12.29
2023-04-18T03:49:41.585Z,11.01
2023-04-18T03:52:09.182Z,11.34
2023-04-18T03:54:36.349Z,11.81
2023-04-18T03:57:04.731Z,12.04
2023-04-18T03:59:33.421Z,12.05
2023-04-18T04:02:01.084Z,11.64
2023-04-18T04:04:28.654Z,11.71
2023-04-18T04:06:58.094Z,12.23
2023-04-18T04:09:25.917Z,11.79
2023-04-18T04:11:53.299Z,11.45
2023-04-18T04:14:21.534Z,11.25
2023-04-18T04:16:49.302Z,11.39
2023-04-18T04:19:17.852Z,10.82
2023-04-18T04:21:54.341Z,10.92
2023-04-18T04:24:23.048Z,10.87
2023-04-18T04:26:51.888Z,11.20
2023-04-18T04:29:23.773Z,11.38
2023-04-18T04:31:52.749Z,11.35
2023-04-18T04:34:29.649Z,11.20
2023-04-18T04:36:57.628Z,10.84
2023-04-18T04:39:27.224Z,11.11
2023-04-18T04:42:13.466Z,11.02
2023-04-18T04:44:53.573Z,10.78
2023-04-18T04:47:22.356Z,10.64
2023-04-18T04:49:49.562Z,10.92
2023-04-18T04:52:16.752Z,11.27
2023-04-18T04:54:45.781Z,11.54
2023-04-18T04:57:15.535Z,11.38
2023-04-18T04:59:42.914Z,10.73
2023-04-18T05:02:11.641Z,10.88
2023-04-18T05:04:39.518Z,11.28
2023-04-18T05:07:07.287Z,11.42
2023-04-18T05:09:34.810Z,10.94
2023-04-18T05:12:01.957Z,11.13
2023-04-18T05:14:29.211Z,10.79
2023-04-18T05:16:56.629Z,10.59
2023-04-18T05:19:26.494Z,10.52
2023-04-18T05:21:53.694Z,10.97
2023-04-18T05:24:21.234Z,10.96
2023-04-18T05:26:49.032Z,10.85
2023-04-18T05:29:16.147Z,10.98
2023-04-18T05:31:43.339Z,10.98
2023-04-18T05:34:13.547Z,11.25
2023-04-18T05:36:41.328Z,11.08
2023-04-18T05:39:08.622Z,11.71
2023-04-18T05:41:35.788Z,11.76
2023-04-18T05:44:05.786Z,11.27
2023-04-18T05:46:33.791Z,10.67
2023-04-18T05:49:01.881Z,11.14
2023-04-18T05:51:29.224Z,11.29
2023-04-18T05:53:56.704Z,11.85
2023-04-18T05:56:24.067Z,11.79
2023-04-18T05:58:51.460Z,11.69
2023-04-18T06:01:18.972Z,11.72
2023-04-18T06:03:46.455Z,11.49
2023-04-18T06:06:14.328Z,11.89
2023-04-18T06:08:41.778Z,11.81
2023-04-18T06:11:09.087Z,11.91
2023-04-18T06:13:37.368Z,12.22
2023-04-18T06:16:05.925Z,11.72
2023-04-18T06:18:33.596Z,12.03
2023-04-18T06:21:00.860Z,12.49
2023-04-18T06:23:28.109Z,12.63
2023-04-18T06:25:58.024Z,11.53
2023-04-18T06:28:27.044Z,12.08
2023-04-18T06:30:54.196Z,11.70
2023-04-18T06:33:21.518Z,11.97
2023-04-18T06:35:49.079Z,12.51
2023-04-18T06:38:16.488Z,12.45
2023-04-18T06:40:43.710Z,12.85
2023-04-18T06:43:11.065Z,12.35
2023-04-18T06:45:40.534Z,12.81
2023-04-18T06:48:09.132Z,12.62
2023-04-18T06:50:36.588Z,12.98
2023-04-18T06:53:03.784Z,13.34
2023-04-18T06:55:31.404Z,13.34
2023-04-18T06:58:00.491Z,13.33
2023-04-18T07:00:27.944Z,13.73
2023-04-18T07:02:55.331Z,13.79
2023-04-18T07:05:23.453Z,13.97
2023-04-18T07:07:51.554Z,14.04
2023-04-18T07:10:18.962Z,14.14
2023-04-18T07:12:47.482Z,14.46
2023-04-18T07:15:14.849Z,13.93
2023-04-18T07:17:42.100Z,13.74
2023-04-18T07:20:12.355Z,13.92
2023-04-18T07:22:42.035Z,13.03
2023-04-18T07:25:15.784Z,13.95
2023-04-18T07:27:43.192Z,13.56
2023-04-18T07:30:11.369Z,13.81
2023-04-18T07:32:38.797Z,13.77
2023-04-18T07:35:06.806Z,13.41
2023-04-18T07:37:36.054Z,13.55
2023-04-18T07:40:04.778Z,13.59
2023-04-18T07:42:32.066Z,13.85
2023-04-18T07:44:59.613Z,14.06
2023-04-18T07:47:30.284Z,14.44
2023-04-18T07:49:58.525Z,14.28
2023-04-18T07:52:25.968Z,14.33
2023-04-18T07:54:53.260Z,15.39
2023-04-18T07:57:20.886Z,15.25
2023-04-18T07:59:48.256Z,15.14
2023-04-18T08:02:16.287Z,15.37
2023-04-18T08:04:43.836Z,16.07
2023-04-18T08:07:11.441Z,15.48
2023-04-18T08:09:38.976Z,15.80
2023-04-18T08:12:06.757Z,17.10
2023-04-18T08:14:34.476Z,17.11
2023-04-18T08:17:01.973Z,18.26
2023-04-18T08:19:30.476Z,18.13
2023-04-18T08:22:11.194Z,19.90
2023-04-18T08:24:39.605Z,20.36
2023-04-18T08:27:07.586Z,21.92
2023-04-18T08:29:34.841Z,22.11
2023-04-18T08:32:02.314Z,21.36
2023-04-18T08:34:34.021Z,19.40
2023-04-18T08:37:02.124Z,19.36
2023-04-18T08:39:31.121Z,19.92
2023-04-18T08:42:00.784Z,21.72
2023-04-18T08:44:29.703Z,21.04
2023-04-18T08:46:57.811Z,18.67
2023-04-18T08:49:25.788Z,16.99
2023-04-18T08:51:53.523Z,16.74
2023-04-18T08:54:22.538Z,17.41
2023-04-18T08:57:16.896Z,15.44
2023-04-18T08:59:48.258Z,16.41
2023-04-18T09:02:17.909Z,16.75
2023-04-18T09:04:52.637Z,16.19
2023-04-18T09:07:28.619Z,16.97
2023-04-18T09:09:58.183Z,16.97
2023-04-18T09:12:27.946Z,16.47
2023-04-18T09:15:16.882Z,16.15
2023-04-18T09:17:50.986Z,15.22
2023-04-18T09:20:41.446Z,15.30
2023-04-18T09:23:14.778Z,15.34
2023-04-18T09:25:45.015Z,15.61
2023-04-18T09:28:28.072Z,16.05
2023-04-18T09:31:15.398Z,16.21
2023-04-18T09:33:56.813Z,17.05
2023-04-18T09:36:27.713Z,16.80
2023-04-18T09:38:57.247Z,15.89
2023-04-18T09:41:24.866Z,16.23
2023-04-18T09:44:15.879Z,17.72
2023-04-18T09:46:47.419Z,18.45
2023-04-18T09:49:16.804Z,20.16
2023-04-18T09:51:46.142Z,20.19
2023-04-18T09:54:18.390Z,19.17
2023-04-18T09:56:50.775Z,19.71
2023-04-18T09:59:32.723Z,19.14
2023-04-18T10:02:03.745Z,17.84
2023-04-18T10:04:32.932Z,18.33
2023-04-18T10:07:01.994Z,18.57
2023-04-18T10:09:33.959Z,18.68
2023-04-18T10:12:02.676Z,19.13
2023-04-18T10:14:33.777Z,19.13
2023-04-18T10:17:01.797Z,19.65
2023-04-18T10:19:30.300Z,19.44
2023-04-18T10:22:01.478Z,19.79
2023-04-18T10:24:56.338Z,19.35
2023-04-18T10:27:49.158Z,19.35
2023-04-18T10:30:18.934Z,19.73
2023-04-18T10:32:46.944Z,20.07
2023-04-18T10:35:14.821Z,19.63
2023-04-18T10:37:52.463Z,20.03
2023-04-18T10:40:34.563Z,19.10
2023-04-18T10:43:02.511Z,18.04
2023-04-18T10:45:36.263Z,17.88
2023-04-18T10:48:30.213Z,18.17
2023-04-18T10:51:20.796Z,18.81
2023-04-18T10:54:00.346Z,18.14
2023-04-18T10:56:29.016Z,18.07
2023-04-18T10:59:03.511Z,18.71
2023-04-18T11:01:36.525Z,18.46
2023-04-18T11:04:13.971Z,17.73
2023-04-18T11:06:55.056Z,17.73
2023-04-18T11:09:22.615Z,18.22
2023-04-18T11:12:10.935Z,18.67
2023-04-18T11:14:51.925Z,18.76
2023-04-18T11:17:32.860Z,18.61
2023-04-18T11:20:15.607Z,18.46
2023-04-18T11:23:00.973Z,18.61
2023-04-18T11:25:36.457Z,18.16
2023-04-18T11:28:04.988Z,18.14
2023-04-18T11:30:42.667Z,17.77
2023-04-18T11:33:13.166Z,18.06
2023-04-18T11:35:46.639Z,18.45
2023-04-18T11:38:16.589Z,17.69
2023-04-18T11:40:51.025Z,17.86
2023-04-18T11:43:25.567Z,17.71
2023-04-18T11:46:03.420Z,17.91
2023-04-18T11:48:41.300Z,18.16
2023-04-18T11:51:35.587Z,18.08
2023-04-18T11:54:02.906Z,17.92
2023-04-18T11:56:33.997Z,17.82
2023-04-18T11:59:09.937Z,18.24
2023-04-18T12:01:37.851Z,18.48
2023-04-18T12:04:08.159Z,18.19
2023-04-18T12:06:53.981Z,17.78
2023-04-18T12:09:25.034Z,18.38
2023-04-18T12:12:03.976Z,18.66
2023-04-18T12:14:31.274Z,19.00
2023-04-18T12:16:58.562Z,18.55
2023-04-18T12:19:30.278Z,19.31
2023-04-18T12:22:05.287Z,18.57
2023-04-18T12:24:34.029Z,18.79
2023-04-18T12:27:02.077Z,18.42
2023-04-18T12:29:29.874Z,18.84
2023-04-18T12:32:03.484Z,18.52
2023-04-18T12:34:31.035Z,18.19
2023-04-18T12:36:58.495Z,18.85
2023-04-18T12:39:26.023Z,19.56
2023-04-18T12:41:53.318Z,19.73
2023-04-18T12:44:21.000Z,19.44
2023-04-18T12:46:48.478Z,19.04
2023-04-18T12:49:15.982Z,19.06
2023-04-18T12:51:43.671Z,19.37
2023-04-18T12:54:10.988Z,18.71
2023-04-18T12:56:38.368Z,18.51
2023-04-18T12:59:05.742Z,18.95
2023-04-18T13:01:33.286Z,18.53
2023-04-18T13:04:11.589Z,18.78
2023-04-18T13:06:40.445Z,19.55
2023-04-18T13:09:08.206Z,20.14
2023-04-18T13:11:35.485Z,20.69
2023-04-18T13:14:02.796Z,20.39
2023-04-18T13:16:30.841Z,20.16
2023-04-18T13:18:58.308Z,19.23
2023-04-18T13:21:25.989Z,18.87
2023-04-18T13:24:18.919Z,18.70
2023-04-18T13:26:47.205Z,19.34
2023-04-18T13:29:14.706Z,19.59
2023-04-18T13:31:42.436Z,20.27
2023-04-18T13:34:13.871Z,19.88
2023-04-18T13:36:41.523Z,19.41
2023-04-18T13:39:09.251Z,19.37
2023-04-18T13:41:36.889Z,19.36
2023-04-18T13:44:04.744Z,18.89
2023-04-18T13:46:32.502Z,18.95
2023-04-18T13:49:00.188Z,19.08
2023-04-18T13:51:29.960Z,18.92
2023-04-18T13:53:57.560Z,19.11
2023-04-18T13:56:25.430Z,19.42
2023-04-18T13:58:53.140Z,18.66
2023-04-18T14:01:21.115Z,18.17
2023-04-18T14:03:49.325Z,18.05
2023-04-18T14:06:17.609Z,17.91
2023-04-18T14:08:45.760Z,17.55
2023-04-18T14:11:13.396Z,17.64
2023-04-18T14:13:41.132Z,18.10
2023-04-18T14:16:09.250Z,18.01
2023-04-18T14:18:36.940Z,17.95
2023-04-18T14:21:05.570Z,17.72
2023-04-18T14:23:36.714Z,17.93
2023-04-18T14:26:05.691Z,18.23
2023-04-18T14:28:58.665Z,18.47
2023-04-18T14:31:28.146Z,17.66
2023-04-18T14:33:55.449Z,18.50
2023-04-18T14:36:23.084Z,19.08
2023-04-18T14:38:50.425Z,19.50
2023-04-18T14:41:17.919Z,19.56
2023-04-18T14:43:45.800Z,19.42
2023-04-18T14:46:16.655Z,19.73
2023-04-18T14:48:48.014Z,19.04
2023-04-18T14:51:16.929Z,19.17
2023-04-18T14:53:45.590Z,18.78
2023-04-18T14:56:13.665Z,18.90
2023-04-18T14:58:41.144Z,19.34
2023-04-18T15:01:08.885Z,18.48
2023-04-18T15:03:36.526Z,18.46
2023-04-18T15:06:04.918Z,18.37
2023-04-18T15:08:33.020Z,18.75
2023-04-18T15:11:01.483Z,19.28
2023-04-18T15:13:29.144Z,19.41
2023-04-18T15:15:57.765Z,19.17
2023-04-18T15:18:25.486Z,19.63
2023-04-18T15:20:53.928Z,19.53
2023-04-18T15:23:21.641Z,19.20
2023-04-18T15:25:49.634Z,19.73
2023-04-18T15:28:18.720Z,19.37
2023-04-18T15:30:46.413Z,19.59
2023-04-18T15:33:14.439Z,19.78
2023-04-18T15:35:41.763Z,19.77
2023-04-18T15:38:09.484Z,20.02
2023-04-18T15:40:37.925Z,20.05
2023-04-18T15:43:06.007Z,19.49
2023-04-18T15:45:33.981Z,19.59
2023-04-18T15:48:02.273Z,19.76
2023-04-18T15:50:31.482Z,19.93
2023-04-18T15:53:00.540Z,20.17
2023-04-18T15:55:28.040Z,20.32
2023-04-18T15:57:55.695Z,20.69
2023-04-18T16:00:23.817Z,20.68
2023-04-18T16:02:52.004Z,20.63
2023-04-18T16:05:23.690Z,19.96
2023-04-18T16:07:53.856Z,19.37
2023-04-18T16:10:21.930Z,19.10
2023-04-18T16:12:49.358Z,18.53
2023-04-18T16:15:16.843Z,17.71
2023-04-18T16:17:44.234Z,17.73
2023-04-18T16:20:11.847Z,17.28
2023-04-18T16:22:39.113Z,17.03
2023-04-18T16:25:08.157Z,16.92
2023-04-18T16:27:35.782Z,17.39
2023-04-18T16:30:04.334Z,17.69
2023-04-18T16:32:32.711Z,17.46
2023-04-18T16:35:00.320Z,17.03
2023-04-18T16:37:28.400Z,17.43
2023-04-18T16:39:56.068Z,17.82
2023-04-18T16:42:23.322Z,17.30
2023-04-18T16:44:50.667Z,17.11
2023-04-18T16:47:18.511Z,16.97
2023-04-18T16:49:51.521Z,16.60
2023-04-18T16:52:19.359Z,16.94
2023-04-18T16:54:46.641Z,17.03
2023-04-18T16:57:14.791Z,16.86
2023-04-18T16:59:42.233Z,16.64
2023-04-18T17:02:09.942Z,16.68
2023-04-18T17:04:37.942Z,17.11
2023-04-18T17:07:05.504Z,17.09
2023-04-18T17:09:33.078Z,17.63
2023-04-18T17:12:01.666Z,17.55
2023-04-18T17:14:28.982Z,17.07
2023-04-18T17:16:56.438Z,16.98
2023-04-18T17:19:26.379Z,16.98
2023-04-18T17:21:53.982Z,16.76
2023-04-18T17:24:22.750Z,17.07
2023-04-18T17:26:50.364Z,17.32
2023-04-18T17:29:18.503Z,17.28
2023-04-18T17:31:46.021Z,17.24
2023-04-18T17:34:13.626Z,16.91
2023-04-18T17:36:41.288Z,16.43
2023-04-18T17:39:09.626Z,16.92
2023-04-18T17:41:39.217Z,17.27
2023-04-18T17:44:08.238Z,17.13
2023-04-18T17:46:36.306Z,17.01
2023-04-18T17:49:34.342Z,16.73
2023-04-18T17:52:02.744Z,17.32
2023-04-18T17:54:30.680Z,16.97
2023-04-18T17:56:58.454Z,17.27
2023-04-18T17:59:26.436Z,16.87
2023-04-18T18:01:57.939Z,17.03
2023-04-18T18:04:29.409Z,16.99
2023-04-18T18:06:58.596Z,16.88
2023-04-18T18:09:26.872Z,17.22
2023-04-18T18:11:55.912Z,17.27
2023-04-18T18:14:23.724Z,17.11
2023-04-18T18:16:51.245Z,16.86
2023-04-18T18:19:20.590Z,16.95
2023-04-18T18:21:48.144Z,17.14
2023-04-18T18:24:19.044Z,16.67
2023-04-18T18:26:46.519Z,16.24
2023-04-18T18:29:14.171Z,16.14
2023-04-18T18:31:42.827Z,16.42
2023-04-18T18:34:14.044Z,16.70
2023-04-18T18:36:41.531Z,16.80
2023-04-18T18:39:09.039Z,17.05
2023-04-18T18:41:36.380Z,16.91
2023-04-18T18:44:03.625Z,16.81
2023-04-18T18:46:31.265Z,16.48
2023-04-18T18:48:58.623Z,16.88
2023-04-18T18:51:26.356Z,16.73
2023-04-18T18:53:53.643Z,16.08
2023-04-18T18:56:22.337Z,15.65
2023-04-18T18:58:50.270Z,15.86
2023-04-18T19:01:23.789Z,16.18
2023-04-18T19:03:51.639Z,15.47
2023-04-18T19:06:21.854Z,15.83
2023-04-18T19:08:49.559Z,16.07
2023-04-18T19:11:18.844Z,15.70
2023-04-18T19:13:46.766Z,15.28
2023-04-18T19:16:14.202Z,14.92
2023-04-18T19:18:46.815Z,15.06
2023-04-18T19:21:14.211Z,14.96
2023-04-18T19:23:42.347Z,14.55
2023-04-18T19:26:12.385Z,14.88
2023-04-18T19:28:55.850Z,15.55
2023-04-18T19:31:43.845Z,15.31
2023-04-18T19:34:14.287Z,15.28
2023-04-18T19:36:41.879Z,15.14
2023-04-18T19:39:09.772Z,15.13
2023-04-18T19:41:37.506Z,15.00
2023-04-18T19:44:07.866Z,15.00
2023-04-18T19:46:35.672Z,15.10
2023-04-18T19:49:06.733Z,15.18
2023-04-18T19:51:34.435Z,14.64
2023-04-18T19:54:02.340Z,15.08
2023-04-18T19:56:29.778Z,14.72
2023-04-18T19:58:58.112Z,14.74
2023-04-18T20:01:25.993Z,14.76
2023-04-18T20:04:08.193Z,14.64
2023-04-18T20:06:58.638Z,14.99
2023-04-18T20:09:26.180Z,14.30
2023-04-18T20:11:54.327Z,14.68
2023-04-18T20:14:21.810Z,14.58
2023-04-18T20:16:49.901Z,13.94
2023-04-18T20:19:19.713Z,14.20
2023-04-18T20:21:47.041Z,14.52
2023-04-18T20:24:15.620Z,14.77
2023-04-18T20:26:43.938Z,14.68
2023-04-18T20:29:11.252Z,15.25
2023-04-18T20:31:42.292Z,14.92
2023-04-18T20:34:13.988Z,14.44
2023-04-18T20:36:41.899Z,14.63
2023-04-18T20:39:09.860Z,14.84
2023-04-18T20:41:39.566Z,14.77
2023-04-18T20:44:13.049Z,14.64
2023-04-18T20:46:42.232Z,14.67
2023-04-18T20:49:13.640Z,14.11
2023-04-18T20:51:41.518Z,14.36
2023-04-18T20:54:09.005Z,14.66
2023-04-18T20:56:38.786Z,14.54
2023-04-18T20:59:06.041Z,15.10
2023-04-18T21:01:33.805Z,14.45
2023-04-18T21:04:02.618Z,14.38
2023-04-18T21:06:31.278Z,14.88
2023-04-18T21:08:58.903Z,14.46
2023-04-18T21:11:26.626Z,15.01
2023-04-18T21:13:54.090Z,14.99
2023-04-18T21:16:21.753Z,15.06
2023-04-18T21:18:49.376Z,15.34
2023-04-18T21:21:17.873Z,15.06
2023-04-18T21:23:46.379Z,14.72
2023-04-18T21:26:17.945Z,14.60
2023-04-18T21:29:04.341Z,13.96
2023-04-18T21:31:39.872Z,14.56
2023-04-18T21:34:14.170Z,14.66
2023-04-18T21:36:41.883Z,14.39
2023-04-18T21:39:09.086Z,14.82
2023-04-18T21:41:36.489Z,14.27
2023-04-18T21:44:04.160Z,14.33
2023-04-18T21:46:31.744Z,14.77
2023-04-18T21:48:59.511Z,14.85
2023-04-18T21:51:27.310Z,14.59
2023-04-18T21:53:54.928Z,14.72
2023-04-18T21:56:22.682Z,14.71
2023-04-18T21:58:50.521Z,14.12
2023-04-18T22:01:18.149Z,14.24
2023-04-18T22:03:46.270Z,14.55
2023-04-18T22:06:14.018Z,14.34
2023-04-18T22:08:42.064Z,14.48
2023-04-18T22:11:11.625Z,14.97
2023-04-18T22:13:38.957Z,14.56
2023-04-18T22:16:10.800Z,14.82
2023-04-18T22:18:42.148Z,15.06
2023-04-18T22:21:10.050Z,15.25
2023-04-18T22:23:37.674Z,14.92
2023-04-18T22:26:06.243Z,14.91
2023-04-18T22:28:33.999Z,15.12
2023-04-18T22:31:01.461Z,15.35
2023-04-18T22:33:28.951Z,15.16
2023-04-18T22:35:56.260Z,14.80
2023-04-18T22:38:26.053Z,15.09
2023-04-18T22:40:53.556Z,14.77
2023-04-18T22:43:23.593Z,14.83
2023-04-18T22:45:51.736Z,14.80
2023-04-18T22:48:19.497Z,14.61
2023-04-18T22:50:47.289Z,14.67
2023-04-18T22:53:16.491Z,14.66
2023-04-18T22:55:46.227Z,13.80
2023-04-18T22:58:14.236Z,14.00
2023-04-18T23:00:41.798Z,14.42
2023-04-18T23:03:09.599Z,14.73
2023-04-18T23:05:37.488Z,14.85
2023-04-18T23:08:08.801Z,14.74
2023-04-18T23:10:36.592Z,14.34
2023-04-18T23:13:04.192Z,14.17
2023-04-18T23:15:31.430Z,14.16
2023-04-18T23:17:58.827Z,14.08
2023-04-18T23:20:26.620Z,14.54
2023-04-18T23:22:56.065Z,14.32
2023-04-18T23:25:23.996Z,14.75
2023-04-18T23:27:52.361Z,14.62
2023-04-18T23:30:19.788Z,14.81
2023-04-18T23:32:47.070Z,14.47
2023-04-18T23:35:14.901Z,14.31
2023-04-18T23:37:42.694Z,14.55
2023-04-18T23:40:11.015Z,14.25
2023-04-18T23:42:38.716Z,14.29
2023-04-18T23:45:07.036Z,13.60
2023-04-18T23:47:35.491Z,14.00
2023-04-18T23:50:03.294Z,13.84
2023-04-18T23:52:30.709Z,13.99
2023-04-18T23:55:02.043Z,13.90
2023-04-18T23:57:29.607Z,13.82
2023-04-18T23:59:57.405Z,14.17
